Anderson, Indiana
Current Conditions -  °F | °C
As of 7:53 AM on Monday 24 Nov 2014 (Local Time) from KMIE Reporting Station
Broken Clouds Broken Clouds  
Wind Chill: 56°   Ceiling: 9500
Heat Index: 56°   Visibility: 10mi
Dew Point: 50°   Wind: 23mph
Humidity: 80%   Direction: 210°SSW
Pressure: 29.16"   Gusts: 32mph
Location:  40.1°N, 85.68°W
Report Text: KMIE 241253Z 21020G28KT 10SM SCT065 SCT075 BKN095 13/10 A2916 RMK AO2 PK WND 21035/1236 LTG DSNT E AND SE RAB06E52 SLP870 P0002 T01330100
Loading
Personal Weather Stations






























Interactive Weather Map New forecast layout! Learn more

10-Day Weather Forecast

Advertisements
Track Severe Weather on mobile